Time;durP1;ratioP1;P1;durP2;ratioP2;P2;SDS_P1;SDS_P2;PMS_P1;PMS_P2;Temp;Humidity;BMP_temperature;BMP_pressure;BME280_temperature;BME280_humidity;BME280_pressure;Samples;Min_cycle;Max_cycle;Signal;HPM_P1;HPM_P2
2022/07/11 00:01:30;;;;;;;3.53;2.97;;;;;;;;;;4933511;29;20215;-84
2022/07/11 00:03:55;;;;;;;6.17;3.17;;;;;;;;;;4935672;29;20176;-83
2022/07/11 00:06:21;;;;;;;3.50;3.07;;;;;;;;;;4948642;28;20184;-84
2022/07/11 00:08:46;;;;;;;3.37;3.07;;;;;;;;;;4948545;28;20192;-84
2022/07/11 00:11:12;;;;;;;3.97;3.50;;;;;;;;;;4934818;29;20172;-85
2022/07/11 00:13:37;;;;;;;3.90;3.50;;;;;;;;;;4950459;28;20279;-85
2022/07/11 00:16:02;;;;;;;4.03;3.00;;;;;;;;;;4949656;28;20221;-85
2022/07/11 00:18:28;;;;;;;3.27;2.97;;;;;;;;;;4949104;28;20182;-83
2022/07/11 00:20:53;;;;;;;3.93;3.10;;;;;;;;;;4953374;28;20166;-85
2022/07/11 00:23:18;;;;;;;3.80;2.97;;;;;;;;;;4937674;29;20211;-84
2022/07/11 00:25:44;;;;;;;2.90;2.70;;;;;;;;;;4948518;28;20180;-84
2022/07/11 00:28:09;;;;;;;3.63;3.33;;;;;;;;;;4954161;28;20215;-84
2022/07/11 00:30:34;;;;;;;3.57;3.23;;;;;;;;;;4953799;28;20218;-83
2022/07/11 00:32:59;;;;;;;4.83;3.00;;;;;;;;;;4950740;28;20214;-83
2022/07/11 00:35:26;;;;;;;3.90;3.57;;;;;;;;;;4949597;29;20256;-84
2022/07/11 00:37:51;;;;;;;3.27;2.97;;;;;;;;;;4949114;28;20199;-85
2022/07/11 00:40:17;;;;;;;3.43;3.03;;;;;;;;;;4954176;28;20184;-84
2022/07/11 00:42:42;;;;;;;4.53;2.77;;;;;;;;;;4949562;28;20262;-85
2022/07/11 00:45:07;;;;;;;3.37;3.07;;;;;;;;;;4933763;29;20184;-83
2022/07/11 00:47:33;;;;;;;2.73;2.53;;;;;;;;;;4949540;28;20183;-84
2022/07/11 00:49:58;;;;;;;2.83;2.57;;;;;;;;;;4950523;28;20270;-83
2022/07/11 00:52:23;;;;;;;4.80;3.03;;;;;;;;;;4948812;28;20188;-84
2022/07/11 00:54:49;;;;;;;3.40;3.10;;;;;;;;;;4950173;28;20279;-83
2022/07/11 00:57:14;;;;;;;3.70;3.10;;;;;;;;;;4956593;28;20223;-84
2022/07/11 00:59:39;;;;;;;4.37;3.33;;;;;;;;;;4947147;28;20182;-84
2022/07/11 01:02:06;;;;;;;4.10;3.70;;;;;;;;;;4945757;28;20212;-85
2022/07/11 01:04:31;;;;;;;4.33;3.93;;;;;;;;;;4947134;28;20185;-85
2022/07/11 01:06:56;;;;;;;3.80;3.50;;;;;;;;;;4936627;29;20215;-84
2022/07/11 01:09:22;;;;;;;3.70;3.40;;;;;;;;;;4949826;28;20547;-84
2022/07/11 01:11:47;;;;;;;3.83;3.53;;;;;;;;;;4947196;28;20218;-82
2022/07/11 01:14:12;;;;;;;4.17;3.77;;;;;;;;;;4934108;29;20203;-85
2022/07/11 01:16:37;;;;;;;4.30;3.90;;;;;;;;;;4948072;29;20190;-83
2022/07/11 01:19:03;;;;;;;4.10;3.73;;;;;;;;;;4935341;29;20191;-84
2022/07/11 01:21:41;;;;;;;4.70;4.23;;;;;;;;;;4947096;28;20392;-84
2022/07/11 01:24:06;;;;;;;4.47;4.07;;;;;;;;;;4934491;29;20253;-83
2022/07/11 01:26:34;;;;;;;4.57;3.97;;;;;;;;;;4946981;28;20190;-83
2022/07/11 01:29:07;;;;;;;4.60;3.87;;;;;;;;;;4927040;29;20194;-83
2022/07/11 01:31:32;;;;;;;6.13;4.37;;;;;;;;;;4931851;29;20185;-84
2022/07/11 01:33:58;;;;;;;4.47;4.03;;;;;;;;;;4925780;29;20203;-84
2022/07/11 01:36:23;;;;;;;5.03;4.53;;;;;;;;;;4948010;28;20214;-84
2022/07/11 01:38:48;;;;;;;7.03;4.67;;;;;;;;;;4947710;28;20183;-83
2022/07/11 01:41:14;;;;;;;4.60;4.20;;;;;;;;;;4946758;28;20206;-84
2022/07/11 01:43:39;;;;;;;4.30;3.90;;;;;;;;;;4946977;28;20184;-84
2022/07/11 01:46:04;;;;;;;4.83;4.30;;;;;;;;;;4947758;29;20359;-83
2022/07/11 01:48:29;;;;;;;4.73;4.20;;;;;;;;;;4947584;28;20183;-85
2022/07/11 01:50:55;;;;;;;5.37;4.87;;;;;;;;;;4947563;28;20235;-85
2022/07/11 01:53:20;;;;;;;4.80;4.40;;;;;;;;;;4931536;29;20178;-83
2022/07/11 01:55:45;;;;;;;6.03;5.30;;;;;;;;;;4935556;29;20183;-85
2022/07/11 01:58:11;;;;;;;6.40;5.30;;;;;;;;;;4946968;28;20183;-84
2022/07/11 02:00:36;;;;;;;7.13;4.93;;;;;;;;;;4935896;29;20171;-85
2022/07/11 02:03:04;;;;;;;6.83;5.63;;;;;;;;;;4930226;29;20520;-84
2022/07/11 02:05:29;;;;;;;6.37;5.77;;;;;;;;;;4947246;28;20256;-84
2022/07/11 02:08:13;;;;;;;5.50;5.00;;;;;;;;;;4946612;28;20277;-84
2022/07/11 02:10:42;;;;;;;6.50;5.90;;;;;;;;;;4930602;29;20177;-85
2022/07/11 02:13:09;;;;;;;6.50;5.90;;;;;;;;;;4950108;28;20215;-85
2022/07/11 02:15:34;;;;;;;5.20;4.70;;;;;;;;;;4951351;28;20447;-84
2022/07/11 02:18:00;;;;;;;6.43;4.87;;;;;;;;;;4947340;28;20217;-83
2022/07/11 02:20:25;;;;;;;7.40;5.30;;;;;;;;;;4934790;29;20205;-83
2022/07/11 02:22:50;;;;;;;6.20;5.60;;;;;;;;;;4956733;28;20221;-84
2022/07/11 02:25:16;;;;;;;5.77;5.03;;;;;;;;;;4933962;29;20232;-84
2022/07/11 02:27:41;;;;;;;5.97;5.23;;;;;;;;;;4949735;28;20196;-84
2022/07/11 02:30:07;;;;;;;5.70;5.03;;;;;;;;;;4949458;28;20208;-83
2022/07/11 02:32:32;;;;;;;5.20;4.70;;;;;;;;;;4948286;29;20208;-85
2022/07/11 02:34:57;;;;;;;5.97;5.20;;;;;;;;;;4949120;28;20204;-84
2022/07/11 02:37:23;;;;;;;7.23;5.63;;;;;;;;;;4952089;28;20277;-84
2022/07/11 02:39:48;;;;;;;6.90;5.57;;;;;;;;;;4932155;29;20188;-84
2022/07/11 02:42:14;;;;;;;6.13;5.53;;;;;;;;;;4948219;29;20231;-83
2022/07/11 02:44:39;;;;;;;6.70;6.10;;;;;;;;;;4951630;28;20186;-84
2022/07/11 02:47:05;;;;;;;7.07;5.80;;;;;;;;;;4939025;29;20206;-85
2022/07/11 02:49:30;;;;;;;6.23;5.63;;;;;;;;;;4934370;29;20183;-85
2022/07/11 02:51:56;;;;;;;6.67;6.07;;;;;;;;;;4950552;28;20199;-83
2022/07/11 02:54:23;;;;;;;6.87;5.90;;;;;;;;;;4955097;28;20215;-84
2022/07/11 02:56:49;;;;;;;6.13;5.40;;;;;;;;;;4945670;28;20235;-84
2022/07/11 02:59:14;;;;;;;7.07;6.37;;;;;;;;;;4934780;29;20208;-84
2022/07/11 03:01:42;;;;;;;6.30;5.70;;;;;;;;;;4957657;28;20246;-85
2022/07/11 03:04:08;;;;;;;6.70;5.67;;;;;;;;;;4935027;29;20188;-85
2022/07/11 03:06:33;;;;;;;6.70;6.07;;;;;;;;;;4948698;29;20186;-85
2022/07/11 03:08:58;;;;;;;7.30;6.43;;;;;;;;;;4950380;28;20181;-85
2022/07/11 03:11:24;;;;;;;7.20;6.47;;;;;;;;;;4950140;29;20565;-85
2022/07/11 03:13:49;;;;;;;5.30;4.80;;;;;;;;;;4949808;28;20177;-84
2022/07/11 03:16:14;;;;;;;6.80;6.10;;;;;;;;;;4953372;28;20189;-83
2022/07/11 03:18:39;;;;;;;6.23;5.23;;;;;;;;;;4938940;29;20232;-84
2022/07/11 03:21:04;;;;;;;6.67;6.07;;;;;;;;;;4950377;28;20188;-84
2022/07/11 03:23:30;;;;;;;7.57;5.97;;;;;;;;;;4935296;29;20238;-85
2022/07/11 03:25:55;;;;;;;5.30;4.80;;;;;;;;;;4935534;29;20230;-84
2022/07/11 03:28:20;;;;;;;7.43;6.10;;;;;;;;;;4935729;29;20217;-84
2022/07/11 03:30:45;;;;;;;7.30;6.60;;;;;;;;;;4950235;28;20188;-84
2022/07/11 03:33:10;;;;;;;8.23;6.43;;;;;;;;;;4938646;29;20208;-83
2022/07/11 03:35:42;;;;;;;6.80;6.10;;;;;;;;;;4939742;28;20278;-83
2022/07/11 03:38:08;;;;;;;8.53;6.10;;;;;;;;;;4949433;29;20187;-84
2022/07/11 03:40:33;;;;;;;7.17;6.30;;;;;;;;;;4951167;28;20223;-83
2022/07/11 03:42:58;;;;;;;8.70;7.17;;;;;;;;;;4949119;29;21327;-83
2022/07/11 03:45:23;;;;;;;6.77;6.17;;;;;;;;;;4950040;28;20196;-84
2022/07/11 03:47:49;;;;;;;7.77;6.97;;;;;;;;;;4951477;28;20239;-83
2022/07/11 03:50:14;;;;;;;7.03;6.40;;;;;;;;;;4948935;28;20190;-83
2022/07/11 03:52:40;;;;;;;6.93;6.00;;;;;;;;;;4948879;28;20232;-84
2022/07/11 03:55:05;;;;;;;7.70;6.43;;;;;;;;;;4950412;28;20342;-83
2022/07/11 03:57:30;;;;;;;7.60;6.70;;;;;;;;;;4952295;28;20290;-84
2022/07/11 03:59:56;;;;;;;12.23;7.63;;;;;;;;;;4954461;28;20222;-83
2022/07/11 04:02:21;;;;;;;8.07;7.17;;;;;;;;;;4949094;28;20223;-84
2022/07/11 04:04:47;;;;;;;8.90;6.33;;;;;;;;;;4950308;28;20429;-84
2022/07/11 04:07:12;;;;;;;10.03;7.13;;;;;;;;;;4947737;28;20184;-83
2022/07/11 04:09:38;;;;;;;6.83;6.23;;;;;;;;;;4951646;28;20239;-84
2022/07/11 04:12:03;;;;;;;6.80;5.50;;;;;;;;;;4950996;28;20192;-83
2022/07/11 04:14:28;;;;;;;6.60;5.87;;;;;;;;;;4955372;28;20188;-84
2022/07/11 04:16:53;;;;;;;7.53;6.83;;;;;;;;;;4953006;28;20200;-84
2022/07/11 04:19:19;;;;;;;8.03;7.30;;;;;;;;;;4935316;29;20184;-83
2022/07/11 04:21:44;;;;;;;7.20;6.30;;;;;;;;;;4953763;28;20275;-83
2022/07/11 04:24:09;;;;;;;8.73;6.20;;;;;;;;;;4951877;28;20231;-84
2022/07/11 04:26:34;;;;;;;8.83;7.37;;;;;;;;;;4958581;28;20195;-83
2022/07/11 04:28:59;;;;;;;11.20;8.00;;;;;;;;;;4939954;29;20192;-84
2022/07/11 04:31:25;;;;;;;9.07;7.33;;;;;;;;;;4935700;29;20278;-84
2022/07/11 04:33:50;;;;;;;8.37;6.93;;;;;;;;;;4939167;29;20184;-84
2022/07/11 04:36:16;;;;;;;9.23;8.27;;;;;;;;;;4949678;29;20180;-84
2022/07/11 04:38:43;;;;;;;9.63;6.87;;;;;;;;;;4950642;28;20189;-84
2022/07/11 04:41:09;;;;;;;10.00;8.93;;;;;;;;;;4939835;29;20243;-84
2022/07/11 04:43:35;;;;;;;6.00;5.40;;;;;;;;;;4955099;28;20199;-84
2022/07/11 04:46:01;;;;;;;6.50;5.67;;;;;;;;;;4952267;28;20173;-83
2022/07/11 04:48:29;;;;;;;10.00;7.37;;;;;;;;;;4947595;28;20180;-83
2022/07/11 04:50:54;;;;;;;9.13;6.40;;;;;;;;;;4948816;28;20174;-83
2022/07/11 04:53:19;;;;;;;8.10;6.47;;;;;;;;;;4947567;28;20180;-84
2022/07/11 04:55:44;;;;;;;6.43;5.83;;;;;;;;;;4938233;29;20232;-81
2022/07/11 04:58:11;;;;;;;7.23;6.53;;;;;;;;;;4949245;28;20211;-83
2022/07/11 05:00:36;;;;;;;8.30;5.90;;;;;;;;;;4949251;28;20185;-83
2022/07/11 05:03:02;;;;;;;8.40;6.67;;;;;;;;;;4947115;28;20236;-85
2022/07/11 05:05:27;;;;;;;8.70;7.27;;;;;;;;;;4948320;28;20183;-84
2022/07/11 05:07:52;;;;;;;9.73;7.73;;;;;;;;;;4946913;28;20176;-85
2022/07/11 05:10:18;;;;;;;10.63;7.73;;;;;;;;;;4951398;28;20238;-85
2022/07/11 05:12:44;;;;;;;7.93;6.93;;;;;;;;;;4948476;28;20222;-84
2022/07/11 05:15:09;;;;;;;10.10;6.53;;;;;;;;;;4948444;28;20233;-84
2022/07/11 05:17:35;;;;;;;8.77;6.40;;;;;;;;;;4945276;28;20188;-83
2022/07/11 05:20:03;;;;;;;10.07;6.33;;;;;;;;;;4929579;29;20188;-83
2022/07/11 05:22:28;;;;;;;7.27;6.57;;;;;;;;;;4954729;28;20227;-85
2022/07/11 05:24:53;;;;;;;7.47;6.67;;;;;;;;;;4952839;28;20260;-85
2022/07/11 05:27:19;;;;;;;8.97;6.37;;;;;;;;;;4933709;29;20184;-84
2022/07/11 05:29:44;;;;;;;5.90;5.40;;;;;;;;;;4934013;29;20181;-84
2022/07/11 05:32:10;;;;;;;6.13;5.27;;;;;;;;;;4941353;29;20195;-83
2022/07/11 05:34:35;;;;;;;5.50;5.00;;;;;;;;;;4948987;28;20184;-84
2022/07/11 05:37:00;;;;;;;4.67;4.10;;;;;;;;;;4950339;28;20192;-83
2022/07/11 05:39:25;;;;;;;8.77;4.97;;;;;;;;;;4934510;29;20190;-84
2022/07/11 05:41:51;;;;;;;4.30;3.90;;;;;;;;;;4952628;28;20221;-85
2022/07/11 05:44:18;;;;;;;4.20;3.80;;;;;;;;;;4933429;29;20352;-84
2022/07/11 05:46:43;;;;;;;5.50;3.37;;;;;;;;;;4943435;28;20178;-85
2022/07/11 05:49:08;;;;;;;3.83;3.53;;;;;;;;;;4930477;29;20195;-85
2022/07/11 05:51:34;;;;;;;3.83;3.53;;;;;;;;;;4928225;29;21542;-81
2022/07/11 05:53:59;;;;;;;4.43;3.97;;;;;;;;;;4949857;28;20183;-84
2022/07/11 05:56:25;;;;;;;3.50;3.20;;;;;;;;;;4929292;29;20240;-84
2022/07/11 05:58:51;;;;;;;3.37;3.07;;;;;;;;;;4940655;29;20199;-83
2022/07/11 06:01:16;;;;;;;5.03;3.30;;;;;;;;;;4933933;29;20324;-85
2022/07/11 06:03:42;;;;;;;3.50;3.20;;;;;;;;;;4948458;28;20294;-84
2022/07/11 06:06:07;;;;;;;2.90;2.70;;;;;;;;;;4947634;28;20185;-83
2022/07/11 06:08:41;;;;;;;2.83;2.63;;;;;;;;;;4938531;29;20204;-84
2022/07/11 06:11:14;;;;;;;2.73;2.47;;;;;;;;;;4945018;29;20190;-84
2022/07/11 06:13:41;;;;;;;2.43;2.20;;;;;;;;;;4939475;29;21105;-84
2022/07/11 06:16:07;;;;;;;2.80;2.60;;;;;;;;;;4936728;29;20513;-83
2022/07/11 06:18:33;;;;;;;2.13;2.03;;;;;;;;;;4952236;28;20209;-83
2022/07/11 06:20:58;;;;;;;2.20;2.07;;;;;;;;;;4958387;28;20188;-83
2022/07/11 06:23:23;;;;;;;1.60;1.50;;;;;;;;;;4937310;29;20204;-84
2022/07/11 06:25:49;;;;;;;1.80;1.70;;;;;;;;;;5158873;23;20239;-84
2022/07/11 06:28:14;;;;;;;1.93;1.77;;;;;;;;;;4981148;28;20187;-84
2022/07/11 06:30:39;;;;;;;2.33;1.80;;;;;;;;;;4977893;28;20180;-85
2022/07/11 06:33:04;;;;;;;2.30;1.80;;;;;;;;;;4971928;28;20181;-84
2022/07/11 06:35:30;;;;;;;1.50;1.40;;;;;;;;;;4976722;28;20180;-83
2022/07/11 06:37:56;;;;;;;1.50;1.40;;;;;;;;;;4979205;28;20247;-83
2022/07/11 06:40:21;;;;;;;1.60;1.50;;;;;;;;;;4972395;28;20199;-84
2022/07/11 06:42:46;;;;;;;1.50;1.40;;;;;;;;;;4975973;28;20201;-84
2022/07/11 06:45:12;;;;;;;1.20;1.17;;;;;;;;;;4971160;28;20203;-85
2022/07/11 06:47:37;;;;;;;2.03;1.40;;;;;;;;;;4970823;28;20172;-83
2022/07/11 06:50:02;;;;;;;1.27;1.17;;;;;;;;;;4973687;28;20192;-85
2022/07/11 06:52:28;;;;;;;1.60;1.50;;;;;;;;;;4971759;28;20196;-84
2022/07/11 06:54:53;;;;;;;1.50;1.40;;;;;;;;;;4967620;28;20211;-85
2022/07/11 06:57:18;;;;;;;1.50;1.40;;;;;;;;;;4969152;28;20212;-84
2022/07/11 06:59:43;;;;;;;1.70;1.60;;;;;;;;;;4968268;28;20182;-83
2022/07/11 07:02:08;;;;;;;1.30;1.20;;;;;;;;;;4968658;28;20380;-80
2022/07/11 07:04:34;;;;;;;1.40;1.30;;;;;;;;;;4966675;28;20177;-83
2022/07/11 07:07:00;;;;;;;1.70;1.60;;;;;;;;;;4970603;28;20182;-84
2022/07/11 07:09:26;;;;;;;1.90;1.80;;;;;;;;;;4968524;28;20191;-85
2022/07/11 07:11:51;;;;;;;2.20;1.70;;;;;;;;;;4965841;28;20193;-85
2022/07/11 07:14:16;;;;;;;1.93;1.83;;;;;;;;;;4962455;28;20417;-85
2022/07/11 07:16:41;;;;;;;3.00;2.20;;;;;;;;;;4967249;28;20239;-83
2022/07/11 07:19:06;;;;;;;2.57;1.70;;;;;;;;;;4971719;28;20189;-85
2022/07/11 07:21:32;;;;;;;1.80;1.70;;;;;;;;;;4967460;28;20257;-81
2022/07/11 07:23:57;;;;;;;1.80;1.70;;;;;;;;;;4962100;28;20186;-84
2022/07/11 07:26:22;;;;;;;1.63;1.40;;;;;;;;;;4964275;28;20221;-84
2022/07/11 07:28:48;;;;;;;1.50;1.40;;;;;;;;;;4965169;28;20180;-84
2022/07/11 07:31:13;;;;;;;1.50;1.40;;;;;;;;;;4963077;28;20231;-83
2022/07/11 07:33:38;;;;;;;1.73;1.60;;;;;;;;;;4976800;28;20205;-82
2022/07/11 07:36:03;;;;;;;1.47;1.37;;;;;;;;;;4960421;28;20180;-85
2022/07/11 07:38:29;;;;;;;1.93;1.60;;;;;;;;;;4959748;28;20199;-82
2022/07/11 07:40:54;;;;;;;1.73;1.63;;;;;;;;;;4966511;28;20246;-84
2022/07/11 07:43:19;;;;;;;1.60;1.50;;;;;;;;;;4963855;28;20215;-84
2022/07/11 07:45:45;;;;;;;1.30;1.20;;;;;;;;;;4960078;28;20192;-82
2022/07/11 07:48:10;;;;;;;1.63;1.30;;;;;;;;;;4969918;28;20188;-86
2022/07/11 07:50:35;;;;;;;2.10;1.63;;;;;;;;;;4966448;28;20169;-83
2022/07/11 07:53:01;;;;;;;1.00;1.00;;;;;;;;;;4964698;28;20266;-83
2022/07/11 07:55:26;;;;;;;1.00;0.93;;;;;;;;;;4962953;28;20209;-86
2022/07/11 07:57:51;;;;;;;0.87;0.87;;;;;;;;;;4966941;28;20297;-84
2022/07/11 08:03:08;;;;;;;0.93;0.90;;;;;;;;;;4967677;28;20366;-86
2022/07/11 08:05:34;;;;;;;1.50;1.20;;;;;;;;;;4957442;28;20267;-83
2022/07/11 08:07:59;;;;;;;1.53;1.40;;;;;;;;;;4974901;28;20253;-83
2022/07/11 08:10:25;;;;;;;0.90;0.90;;;;;;;;;;4973554;28;20184;-86
2022/07/11 08:12:50;;;;;;;1.20;1.10;;;;;;;;;;4982300;28;20223;-85
2022/07/11 08:15:15;;;;;;;1.73;1.10;;;;;;;;;;4970994;28;20179;-84
2022/07/11 08:17:41;;;;;;;1.40;1.30;;;;;;;;;;4975800;28;20185;-85
2022/07/11 08:20:06;;;;;;;1.00;1.00;;;;;;;;;;4969154;28;20193;-84
2022/07/11 08:22:32;;;;;;;0.90;0.90;;;;;;;;;;4965188;28;20237;-83
2022/07/11 08:24:57;;;;;;;1.13;1.13;;;;;;;;;;4960636;28;20333;-84
2022/07/11 08:27:22;;;;;;;0.87;0.87;;;;;;;;;;4958174;28;20189;-84
2022/07/11 08:29:47;;;;;;;1.10;1.10;;;;;;;;;;4966365;28;20187;-84
2022/07/11 08:32:13;;;;;;;0.90;0.90;;;;;;;;;;4969646;28;20780;-84
2022/07/11 08:34:38;;;;;;;1.13;1.13;;;;;;;;;;4965995;28;20196;-85
2022/07/11 08:37:03;;;;;;;1.20;1.10;;;;;;;;;;4963009;28;20190;-85
2022/07/11 08:39:28;;;;;;;1.13;1.10;;;;;;;;;;4964135;28;20174;-84
2022/07/11 08:41:54;;;;;;;1.83;1.30;;;;;;;;;;4959471;28;20204;-84
2022/07/11 08:44:19;;;;;;;1.27;1.20;;;;;;;;;;4962837;28;20186;-83
2022/07/11 08:46:45;;;;;;;1.17;1.17;;;;;;;;;;4976190;28;20182;-83
2022/07/11 08:49:11;;;;;;;1.80;1.30;;;;;;;;;;4962148;28;20197;-85
2022/07/11 08:51:37;;;;;;;1.30;1.20;;;;;;;;;;4966257;28;20196;-82
2022/07/11 08:54:03;;;;;;;1.00;1.00;;;;;;;;;;4973821;28;20173;-84
2022/07/11 08:56:30;;;;;;;2.63;1.10;;;;;;;;;;5182865;23;20239;-78
2022/07/11 08:58:56;;;;;;;1.60;1.50;;;;;;;;;;4975868;28;20217;-78
2022/07/11 09:01:27;;;;;;;1.47;1.37;;;;;;;;;;4970562;28;20245;-78
2022/07/11 09:03:53;;;;;;;1.40;1.30;;;;;;;;;;4968754;28;20216;-78
2022/07/11 09:06:18;;;;;;;1.47;1.37;;;;;;;;;;4968559;28;20290;-77
2022/07/11 09:08:43;;;;;;;1.40;1.30;;;;;;;;;;4975630;28;20270;-78
2022/07/11 09:11:09;;;;;;;2.77;1.77;;;;;;;;;;4976938;28;20187;-78
2022/07/11 09:13:34;;;;;;;2.03;1.70;;;;;;;;;;4970209;28;20182;-78
2022/07/11 09:16:00;;;;;;;1.90;1.80;;;;;;;;;;4970704;28;20224;-78
2022/07/11 09:18:28;;;;;;;1.90;1.80;;;;;;;;;;4973248;28;20237;-78
2022/07/11 09:26:37;;;;;;;2.17;1.97;;;;;;;;;;4969621;28;20453;-79
2022/07/11 09:29:03;;;;;;;2.50;2.30;;;;;;;;;;4970157;28;20184;-78
2022/07/11 09:31:30;;;;;;;2.20;2.00;;;;;;;;;;4972385;28;20181;-79
2022/07/11 09:34:03;;;;;;;2.23;2.13;;;;;;;;;;4967812;28;20185;-79
2022/07/11 09:36:35;;;;;;;2.20;2.00;;;;;;;;;;4967862;28;20328;-79
2022/07/11 09:39:02;;;;;;;2.20;2.00;;;;;;;;;;4970801;28;20215;-78
2022/07/11 09:41:30;;;;;;;2.10;1.90;;;;;;;;;;4974453;28;20180;-78
2022/07/11 09:44:05;;;;;;;2.17;2.00;;;;;;;;;;4970602;28;20218;-79
2022/07/11 09:46:30;;;;;;;2.27;2.07;;;;;;;;;;4969099;28;20173;-82
2022/07/11 09:48:55;;;;;;;1.90;1.80;;;;;;;;;;4973918;28;20199;-77
2022/07/11 09:51:21;;;;;;;1.93;1.83;;;;;;;;;;4975918;28;20256;-78
2022/07/11 09:53:54;;;;;;;2.67;2.00;;;;;;;;;;4970150;28;20189;-79
2022/07/11 09:56:23;;;;;;;2.07;1.97;;;;;;;;;;4971458;28;20237;-78
2022/07/11 09:58:57;;;;;;;2.20;2.10;;;;;;;;;;4983669;28;20195;-78
2022/07/11 10:01:23;;;;;;;2.30;2.10;;;;;;;;;;4969192;28;20191;-78
2022/07/11 10:03:48;;;;;;;2.50;2.30;;;;;;;;;;4967498;28;20283;-78
2022/07/11 10:06:16;;;;;;;3.67;1.90;;;;;;;;;;4972509;28;20459;-77
2022/07/11 10:08:41;;;;;;;4.00;2.10;;;;;;;;;;4979561;28;20178;-77
2022/07/11 10:11:06;;;;;;;2.40;2.20;;;;;;;;;;4970670;28;20262;-78
2022/07/11 10:13:31;;;;;;;2.43;2.23;;;;;;;;;;4969861;28;20206;-78
2022/07/11 10:15:58;;;;;;;2.30;2.10;;;;;;;;;;4969207;28;20217;-78
2022/07/11 10:18:44;;;;;;;2.10;2.00;;;;;;;;;;4977662;28;20191;-77
2022/07/11 10:21:09;;;;;;;2.37;2.17;;;;;;;;;;4977845;28;20569;-78
2022/07/11 10:23:38;;;;;;;3.43;2.83;;;;;;;;;;4972842;28;20205;-78
2022/07/11 10:26:06;;;;;;;2.60;2.40;;;;;;;;;;4977794;28;20177;-77
2022/07/11 10:28:37;;;;;;;2.60;2.20;;;;;;;;;;4967016;28;20224;-78
2022/07/11 10:31:03;;;;;;;2.77;2.57;;;;;;;;;;4973210;28;20181;-79
2022/07/11 10:33:29;;;;;;;2.40;2.20;;;;;;;;;;4973115;28;20184;-78
2022/07/11 10:35:54;;;;;;;2.90;2.70;;;;;;;;;;4975026;28;20224;-78
2022/07/11 10:38:20;;;;;;;2.23;2.03;;;;;;;;;;4970636;28;20224;-78
2022/07/11 10:40:56;;;;;;;2.20;2.10;;;;;;;;;;4971361;28;20186;-78
2022/07/11 10:43:22;;;;;;;2.77;2.20;;;;;;;;;;4967139;28;20210;-78
2022/07/11 10:45:55;;;;;;;2.00;1.90;;;;;;;;;;4973233;28;20172;-79
2022/07/11 10:48:20;;;;;;;1.93;1.83;;;;;;;;;;4970912;28;20179;-78
2022/07/11 10:50:46;;;;;;;2.77;2.37;;;;;;;;;;4970717;28;20251;-78
2022/07/11 10:53:19;;;;;;;3.20;2.20;;;;;;;;;;4978225;28;20210;-78
2022/07/11 10:56:06;;;;;;;4.70;2.50;;;;;;;;;;4973456;28;20239;-78
2022/07/11 10:58:31;;;;;;;4.23;2.40;;;;;;;;;;4962028;28;20291;-78
2022/07/11 11:01:10;;;;;;;2.53;2.33;;;;;;;;;;4969227;28;20196;-77
2022/07/11 11:03:35;;;;;;;2.03;1.93;;;;;;;;;;4984382;28;20214;-79
2022/07/11 11:06:01;;;;;;;2.90;2.40;;;;;;;;;;4979375;28;20176;-78
2022/07/11 11:08:32;;;;;;;2.00;1.90;;;;;;;;;;4975959;28;20209;-78
2022/07/11 11:11:04;;;;;;;2.20;2.00;;;;;;;;;;4982267;28;20272;-78
2022/07/11 11:13:30;;;;;;;2.70;2.50;;;;;;;;;;4975302;28;20266;-78
2022/07/11 11:15:59;;;;;;;2.30;2.07;;;;;;;;;;4975452;28;20577;-79
2022/07/11 11:18:25;;;;;;;2.30;2.20;;;;;;;;;;4972923;28;20196;-78
2022/07/11 11:20:59;;;;;;;2.97;2.43;;;;;;;;;;4979718;28;20183;-78
2022/07/11 11:23:25;;;;;;;3.60;2.73;;;;;;;;;;4978481;28;20251;-78
2022/07/11 11:25:51;;;;;;;3.47;2.43;;;;;;;;;;4983398;28;20179;-78
2022/07/11 11:28:20;;;;;;;2.83;2.50;;;;;;;;;;4976742;28;20227;-79
2022/07/11 11:30:52;;;;;;;2.70;2.30;;;;;;;;;;4977912;28;20208;-78
2022/07/11 11:33:18;;;;;;;2.37;2.17;;;;;;;;;;4972882;28;20254;-78
2022/07/11 11:35:43;;;;;;;2.43;2.23;;;;;;;;;;4980649;28;20182;-78
2022/07/11 11:38:09;;;;;;;2.40;2.20;;;;;;;;;;4975869;28;20192;-79
2022/07/11 11:40:34;;;;;;;2.70;2.30;;;;;;;;;;4973299;28;20264;-78
2022/07/11 11:42:59;;;;;;;2.33;2.10;;;;;;;;;;4972146;28;20212;-79
2022/07/11 11:45:24;;;;;;;2.67;2.47;;;;;;;;;;4981500;28;20288;-79
2022/07/11 11:47:50;;;;;;;3.10;2.10;;;;;;;;;;4973113;28;20192;-78
2022/07/11 11:50:16;;;;;;;2.28;2.10;;;;;;;;;;4974715;28;20267;-78
2022/07/11 11:52:41;;;;;;;2.15;2.00;;;;;;;;;;4975246;28;20235;-78
2022/07/11 11:55:06;;;;;;;2.25;2.15;;;;;;;;;;4978797;28;20204;-78
2022/07/11 11:57:34;;;;;;;3.30;2.40;;;;;;;;;;4972177;28;20191;-77
2022/07/11 11:59:59;;;;;;;3.30;2.17;;;;;;;;;;4972065;28;20338;-78
2022/07/11 12:02:26;;;;;;;1.88;1.77;;;;;;;;;;4973671;28;20338;-78
2022/07/11 12:04:52;;;;;;;2.28;2.10;;;;;;;;;;4981084;28;20172;-78
2022/07/11 12:07:24;;;;;;;2.63;2.30;;;;;;;;;;4971996;28;20184;-78
2022/07/11 12:09:52;;;;;;;2.33;2.10;;;;;;;;;;4972704;28;20177;-78
2022/07/11 12:15:02;;;;;;;2.78;2.00;;;;;;;;;;4978548;28;20203;-79
2022/07/11 12:17:31;;;;;;;2.50;1.88;;;;;;;;;;4971614;28;20264;-78
2022/07/11 12:19:56;;;;;;;2.10;2.00;;;;;;;;;;4968257;28;20208;-78
2022/07/11 12:22:21;;;;;;;2.20;2.10;;;;;;;;;;4976531;28;20215;-78
2022/07/11 12:24:48;;;;;;;2.45;2.25;;;;;;;;;;4982348;28;20177;-78
2022/07/11 12:27:16;;;;;;;2.35;2.15;;;;;;;;;;4971712;28;20177;-78
2022/07/11 12:29:49;;;;;;;2.20;2.00;;;;;;;;;;4977905;28;20179;-78
2022/07/11 12:32:15;;;;;;;2.42;2.20;;;;;;;;;;4984456;28;20180;-78
2022/07/11 12:34:40;;;;;;;4.05;2.38;;;;;;;;;;4973497;28;20188;-78
2022/07/11 12:37:09;;;;;;;2.33;2.13;;;;;;;;;;4969708;28;20177;-78
2022/07/11 12:39:40;;;;;;;2.42;2.15;;;;;;;;;;4977890;28;20191;-78
2022/07/11 12:42:32;;;;;;;2.78;2.45;;;;;;;;;;4972451;28;20228;-78
2022/07/11 12:45:07;;;;;;;2.42;2.22;;;;;;;;;;4980331;28;20185;-78
2022/07/11 12:47:34;;;;;;;2.92;2.55;;;;;;;;;;4980755;28;20180;-79
2022/07/11 12:50:06;;;;;;;3.10;2.40;;;;;;;;;;4973163;28;20273;-79
2022/07/11 12:52:38;;;;;;;2.28;2.13;;;;;;;;;;4971064;28;20211;-78
2022/07/11 12:55:04;;;;;;;2.53;2.33;;;;;;;;;;4971389;28;20185;-78
2022/07/11 12:57:29;;;;;;;3.47;2.35;;;;;;;;;;4977301;28;20187;-79
2022/07/11 12:59:54;;;;;;;2.40;2.20;;;;;;;;;;4979671;28;20185;-78
2022/07/11 13:02:19;;;;;;;3.22;2.03;;;;;;;;;;4971303;28;20216;-78
2022/07/11 13:04:49;;;;;;;2.53;2.20;;;;;;;;;;4971524;28;20173;-79
2022/07/11 13:10:10;;;;;;;2.13;2.03;;;;;;;;;;4974315;28;20192;-78
2022/07/11 13:12:36;;;;;;;2.33;2.10;;;;;;;;;;4971435;28;20192;-78
2022/07/11 13:15:10;;;;;;;2.17;1.98;;;;;;;;;;4971645;28;20228;-79
2022/07/11 13:17:36;;;;;;;2.50;2.30;;;;;;;;;;4969559;28;20248;-79
2022/07/11 13:20:01;;;;;;;3.55;2.35;;;;;;;;;;4973743;28;20207;-78
2022/07/11 13:22:27;;;;;;;2.88;2.00;;;;;;;;;;4976483;28;20196;-78
2022/07/11 13:24:54;;;;;;;2.42;2.33;;;;;;;;;;4971088;28;20203;-79
2022/07/11 13:27:19;;;;;;;2.17;2.08;;;;;;;;;;4971395;28;20165;-79
2022/07/11 13:29:44;;;;;;;2.20;2.10;;;;;;;;;;4981087;28;20176;-78
2022/07/11 13:32:10;;;;;;;2.47;2.15;;;;;;;;;;4970220;28;20196;-78
2022/07/11 13:34:35;;;;;;;2.72;2.53;;;;;;;;;;4971145;28;20187;-79
2022/07/11 13:37:00;;;;;;;2.47;2.28;;;;;;;;;;4967670;28;20181;-78
2022/07/11 13:39:25;;;;;;;2.28;2.10;;;;;;;;;;4983955;28;20199;-78
2022/07/11 13:41:50;;;;;;;2.35;2.00;;;;;;;;;;4972080;28;20285;-78
2022/07/11 13:44:16;;;;;;;2.92;2.60;;;;;;;;;;4971732;28;20203;-78
2022/07/11 13:46:41;;;;;;;2.80;2.50;;;;;;;;;;4971719;28;20180;-79
2022/07/11 13:49:06;;;;;;;2.78;2.53;;;;;;;;;;4976569;28;20184;-79
2022/07/11 13:51:31;;;;;;;4.28;2.63;;;;;;;;;;4976079;28;20176;-79
2022/07/11 13:53:57;;;;;;;4.38;2.40;;;;;;;;;;4975363;28;20197;-79
2022/07/11 13:56:23;;;;;;;2.83;2.63;;;;;;;;;;4976458;28;20232;-78
2022/07/11 13:58:48;;;;;;;2.20;2.10;;;;;;;;;;4975528;28;20189;-78
2022/07/11 14:01:13;;;;;;;2.83;2.63;;;;;;;;;;4971863;28;20189;-78
2022/07/11 14:03:39;;;;;;;2.78;2.58;;;;;;;;;;4968261;28;20208;-78
2022/07/11 14:06:04;;;;;;;2.40;2.20;;;;;;;;;;4978950;28;20172;-78
2022/07/11 14:08:32;;;;;;;2.88;2.50;;;;;;;;;;4970698;28;20267;-78
2022/07/11 14:10:57;;;;;;;2.50;2.30;;;;;;;;;;4964296;28;20201;-78
2022/07/11 14:13:22;;;;;;;2.78;2.50;;;;;;;;;;4971768;28;20219;-78
2022/07/11 14:15:48;;;;;;;2.75;2.53;;;;;;;;;;4970215;28;20312;-78
2022/07/11 14:18:13;;;;;;;2.55;2.40;;;;;;;;;;4985841;28;20196;-78
2022/07/11 14:20:39;;;;;;;2.50;2.38;;;;;;;;;;4974074;28;20200;-79
2022/07/11 14:23:04;;;;;;;3.53;2.67;;;;;;;;;;4973236;28;20207;-79
2022/07/11 14:25:29;;;;;;;2.50;2.30;;;;;;;;;;4970631;28;20176;-78
2022/07/11 14:28:11;;;;;;;3.50;2.60;;;;;;;;;;4971458;28;20227;-79
2022/07/11 14:30:37;;;;;;;2.95;2.75;;;;;;;;;;4982289;28;20189;-77
2022/07/11 14:33:03;;;;;;;3.38;2.88;;;;;;;;;;4971392;28;20190;-77
2022/07/11 14:35:28;;;;;;;2.83;2.63;;;;;;;;;;4970680;28;20181;-77
2022/07/11 14:37:53;;;;;;;2.55;2.35;;;;;;;;;;4969247;28;20189;-77
2022/07/11 14:40:18;;;;;;;2.55;2.35;;;;;;;;;;4982006;28;20238;-76
2022/07/11 14:42:43;;;;;;;2.63;2.45;;;;;;;;;;4973683;28;20228;-77
2022/07/11 14:45:10;;;;;;;2.75;2.55;;;;;;;;;;4974069;28;20216;-77
2022/07/11 14:47:35;;;;;;;2.40;2.30;;;;;;;;;;4967302;28;20264;-77
2022/07/11 14:50:00;;;;;;;2.40;2.20;;;;;;;;;;4975825;28;20276;-77
2022/07/11 14:52:26;;;;;;;3.65;2.60;;;;;;;;;;4971048;28;20299;-77